sensor_id;sensor_type;location;lat;lon;timestamp;P1;durP1;ratioP1;P2;durP2;ratioP2
12832;SDS011;6483;51.310;4.462;2023-02-24T00:00:07;26.23;;;5.43;;
12832;SDS011;6483;51.310;4.462;2023-02-24T00:02:55;24.00;;;5.90;;
12832;SDS011;6483;51.310;4.462;2023-02-24T00:05:23;30.57;;;6.20;;
12832;SDS011;6483;51.310;4.462;2023-02-24T00:07:52;18.57;;;5.67;;
12832;SDS011;6483;51.310;4.462;2023-02-24T00:10:18;25.77;;;6.00;;
12832;SDS011;6483;51.310;4.462;2023-02-24T00:12:45;26.87;;;7.13;;
12832;SDS011;6483;51.310;4.462;2023-02-24T00:15:14;26.57;;;7.23;;
12832;SDS011;6483;51.310;4.462;2023-02-24T00:17:41;34.07;;;6.70;;
12832;SDS011;6483;51.310;4.462;2023-02-24T00:20:09;23.47;;;6.33;;
12832;SDS011;6483;51.310;4.462;2023-02-24T00:22:40;21.37;;;5.93;;
12832;SDS011;6483;51.310;4.462;2023-02-24T00:25:06;31.90;;;6.60;;
12832;SDS011;6483;51.310;4.462;2023-02-24T00:27:37;23.67;;;6.53;;
12832;SDS011;6483;51.310;4.462;2023-02-24T00:30:03;28.23;;;6.20;;
12832;SDS011;6483;51.310;4.462;2023-02-24T00:32:29;22.13;;;6.27;;
12832;SDS011;6483;51.310;4.462;2023-02-24T00:34:55;28.97;;;6.67;;
12832;SDS011;6483;51.310;4.462;2023-02-24T00:37:24;22.57;;;6.80;;
12832;SDS011;6483;51.310;4.462;2023-02-24T00:39:56;28.23;;;7.33;;
12832;SDS011;6483;51.310;4.462;2023-02-24T00:42:22;30.83;;;8.27;;
12832;SDS011;6483;51.310;4.462;2023-02-24T00:44:48;25.17;;;6.90;;
12832;SDS011;6483;51.310;4.462;2023-02-24T00:47:18;26.67;;;7.07;;
12832;SDS011;6483;51.310;4.462;2023-02-24T00:49:44;21.17;;;6.93;;
12832;SDS011;6483;51.310;4.462;2023-02-24T00:52:11;24.87;;;7.57;;
12832;SDS011;6483;51.310;4.462;2023-02-24T00:54:47;25.50;;;7.63;;
12832;SDS011;6483;51.310;4.462;2023-02-24T00:57:13;37.10;;;8.03;;
12832;SDS011;6483;51.310;4.462;2023-02-24T00:59:45;28.30;;;7.47;;
12832;SDS011;6483;51.310;4.462;2023-02-24T01:02:18;29.20;;;7.40;;
12832;SDS011;6483;51.310;4.462;2023-02-24T01:04:44;26.97;;;6.50;;
12832;SDS011;6483;51.310;4.462;2023-02-24T01:07:13;23.27;;;6.10;;
12832;SDS011;6483;51.310;4.462;2023-02-24T01:09:40;23.17;;;6.97;;
12832;SDS011;6483;51.310;4.462;2023-02-24T01:12:07;16.57;;;5.60;;
12832;SDS011;6483;51.310;4.462;2023-02-24T01:14:58;23.07;;;6.50;;
12832;SDS011;6483;51.310;4.462;2023-02-24T01:17:24;30.97;;;5.20;;
12832;SDS011;6483;51.310;4.462;2023-02-24T01:19:50;21.03;;;5.00;;
12832;SDS011;6483;51.310;4.462;2023-02-24T01:22:17;17.30;;;4.40;;
12832;SDS011;6483;51.310;4.462;2023-02-24T01:24:44;21.03;;;5.63;;
12832;SDS011;6483;51.310;4.462;2023-02-24T01:27:14;19.20;;;5.83;;
12832;SDS011;6483;51.310;4.462;2023-02-24T01:29:42;20.97;;;5.07;;
12832;SDS011;6483;51.310;4.462;2023-02-24T01:32:13;22.60;;;4.47;;
12832;SDS011;6483;51.310;4.462;2023-02-24T01:34:41;19.00;;;3.73;;
12832;SDS011;6483;51.310;4.462;2023-02-24T01:37:07;23.67;;;4.47;;
12832;SDS011;6483;51.310;4.462;2023-02-24T01:39:33;23.50;;;5.90;;
12832;SDS011;6483;51.310;4.462;2023-02-24T01:41:59;25.87;;;4.80;;
12832;SDS011;6483;51.310;4.462;2023-02-24T01:46:57;16.57;;;4.97;;
12832;SDS011;6483;51.310;4.462;2023-02-24T01:52:28;20.57;;;5.13;;
12832;SDS011;6483;51.310;4.462;2023-02-24T01:55:20;13.63;;;4.23;;
12832;SDS011;6483;51.310;4.462;2023-02-24T01:57:52;22.00;;;4.27;;
12832;SDS011;6483;51.310;4.462;2023-02-24T02:00:20;25.37;;;4.07;;
12832;SDS011;6483;51.310;4.462;2023-02-24T02:03:17;14.57;;;3.97;;
12832;SDS011;6483;51.310;4.462;2023-02-24T02:06:13;16.13;;;3.53;;
12832;SDS011;6483;51.310;4.462;2023-02-24T02:08:42;21.40;;;4.73;;
12832;SDS011;6483;51.310;4.462;2023-02-24T02:11:13;20.77;;;3.83;;
12832;SDS011;6483;51.310;4.462;2023-02-24T02:13:50;17.60;;;3.77;;
12832;SDS011;6483;51.310;4.462;2023-02-24T02:19:15;13.73;;;3.00;;
12832;SDS011;6483;51.310;4.462;2023-02-24T02:27:49;21.57;;;3.83;;
12832;SDS011;6483;51.310;4.462;2023-02-24T02:42:04;15.90;;;3.37;;
12832;SDS011;6483;51.310;4.462;2023-02-24T02:44:50;13.60;;;3.13;;
12832;SDS011;6483;51.310;4.462;2023-02-24T02:47:40;16.90;;;3.70;;
12832;SDS011;6483;51.310;4.462;2023-02-24T02:56:18;15.37;;;3.57;;
12832;SDS011;6483;51.310;4.462;2023-02-24T02:58:53;13.47;;;3.30;;
12832;SDS011;6483;51.310;4.462;2023-02-24T03:01:20;13.20;;;2.87;;
12832;SDS011;6483;51.310;4.462;2023-02-24T03:03:53;13.83;;;3.30;;
12832;SDS011;6483;51.310;4.462;2023-02-24T03:06:25;12.93;;;3.03;;
12832;SDS011;6483;51.310;4.462;2023-02-24T03:09:54;8.97;;;3.03;;
12832;SDS011;6483;51.310;4.462;2023-02-24T03:11:55;21.73;;;4.60;;
12832;SDS011;6483;51.310;4.462;2023-02-24T03:14:31;15.23;;;3.80;;
12832;SDS011;6483;51.310;4.462;2023-02-24T03:17:03;12.43;;;3.33;;
12832;SDS011;6483;51.310;4.462;2023-02-24T03:19:33;12.43;;;3.13;;
12832;SDS011;6483;51.310;4.462;2023-02-24T03:22:08;15.27;;;3.23;;
12832;SDS011;6483;51.310;4.462;2023-02-24T03:24:44;10.60;;;2.83;;
12832;SDS011;6483;51.310;4.462;2023-02-24T03:27:12;11.60;;;2.77;;
12832;SDS011;6483;51.310;4.462;2023-02-24T03:29:51;15.50;;;2.73;;
12832;SDS011;6483;51.310;4.462;2023-02-24T03:32:27;7.03;;;2.57;;
12832;SDS011;6483;51.310;4.462;2023-02-24T03:35:03;12.43;;;2.57;;
12832;SDS011;6483;51.310;4.462;2023-02-24T03:37:43;10.97;;;2.60;;
12832;SDS011;6483;51.310;4.462;2023-02-24T03:40:11;13.10;;;2.30;;
12832;SDS011;6483;51.310;4.462;2023-02-24T03:42:40;14.10;;;3.60;;
12832;SDS011;6483;51.310;4.462;2023-02-24T03:45:12;12.87;;;2.27;;
12832;SDS011;6483;51.310;4.462;2023-02-24T03:47:40;13.07;;;2.40;;
12832;SDS011;6483;51.310;4.462;2023-02-24T03:50:18;9.23;;;1.70;;
12832;SDS011;6483;51.310;4.462;2023-02-24T03:52:57;11.30;;;2.13;;
12832;SDS011;6483;51.310;4.462;2023-02-24T04:01:30;6.60;;;1.70;;
12832;SDS011;6483;51.310;4.462;2023-02-24T04:04:23;11.77;;;1.97;;
12832;SDS011;6483;51.310;4.462;2023-02-24T04:07:13;7.57;;;2.13;;
12832;SDS011;6483;51.310;4.462;2023-02-24T04:13:13;7.70;;;2.00;;
12832;SDS011;6483;51.310;4.462;2023-02-24T04:15:46;7.57;;;1.93;;
12832;SDS011;6483;51.310;4.462;2023-02-24T04:18:24;9.53;;;1.77;;
12832;SDS011;6483;51.310;4.462;2023-02-24T04:20:56;7.43;;;1.83;;
12832;SDS011;6483;51.310;4.462;2023-02-24T04:23:41;9.07;;;2.17;;
12832;SDS011;6483;51.310;4.462;2023-02-24T04:26:09;9.53;;;2.93;;
12832;SDS011;6483;51.310;4.462;2023-02-24T04:28:37;7.80;;;1.90;;
12832;SDS011;6483;51.310;4.462;2023-02-24T04:31:10;11.17;;;2.17;;
12832;SDS011;6483;51.310;4.462;2023-02-24T04:33:41;11.10;;;2.20;;
12832;SDS011;6483;51.310;4.462;2023-02-24T04:36:07;13.30;;;2.20;;
12832;SDS011;6483;51.310;4.462;2023-02-24T04:38:39;11.80;;;2.37;;
12832;SDS011;6483;51.310;4.462;2023-02-24T04:41:09;7.20;;;2.07;;
12832;SDS011;6483;51.310;4.462;2023-02-24T04:43:36;5.27;;;2.27;;
12832;SDS011;6483;51.310;4.462;2023-02-24T04:46:02;11.63;;;1.90;;
12832;SDS011;6483;51.310;4.462;2023-02-24T04:48:32;7.80;;;1.70;;
12832;SDS011;6483;51.310;4.462;2023-02-24T04:50:59;7.13;;;1.80;;
12832;SDS011;6483;51.310;4.462;2023-02-24T04:53:26;4.73;;;1.93;;
12832;SDS011;6483;51.310;4.462;2023-02-24T04:55:52;9.80;;;2.00;;
12832;SDS011;6483;51.310;4.462;2023-02-24T04:58:20;6.90;;;1.73;;
12832;SDS011;6483;51.310;4.462;2023-02-24T05:00:53;5.87;;;1.80;;
12832;SDS011;6483;51.310;4.462;2023-02-24T05:03:21;12.63;;;2.20;;
12832;SDS011;6483;51.310;4.462;2023-02-24T05:05:57;8.73;;;2.40;;
12832;SDS011;6483;51.310;4.462;2023-02-24T05:08:26;8.67;;;1.80;;
12832;SDS011;6483;51.310;4.462;2023-02-24T05:10:53;9.53;;;2.07;;
12832;SDS011;6483;51.310;4.462;2023-02-24T05:13:40;6.50;;;2.20;;
12832;SDS011;6483;51.310;4.462;2023-02-24T05:16:10;11.80;;;2.70;;
12832;SDS011;6483;51.310;4.462;2023-02-24T05:18:38;11.50;;;1.77;;
12832;SDS011;6483;51.310;4.462;2023-02-24T05:21:05;13.53;;;2.63;;
12832;SDS011;6483;51.310;4.462;2023-02-24T05:23:52;7.93;;;2.00;;
12832;SDS011;6483;51.310;4.462;2023-02-24T05:26:20;7.40;;;1.80;;
12832;SDS011;6483;51.310;4.462;2023-02-24T05:28:53;10.93;;;2.20;;
12832;SDS011;6483;51.310;4.462;2023-02-24T05:31:24;9.50;;;2.40;;
12832;SDS011;6483;51.310;4.462;2023-02-24T05:33:53;11.97;;;2.20;;
12832;SDS011;6483;51.310;4.462;2023-02-24T05:36:24;9.77;;;1.93;;
12832;SDS011;6483;51.310;4.462;2023-02-24T05:38:52;10.07;;;2.50;;
12832;SDS011;6483;51.310;4.462;2023-02-24T05:41:33;12.43;;;2.63;;
12832;SDS011;6483;51.310;4.462;2023-02-24T05:44:03;8.37;;;2.10;;
12832;SDS011;6483;51.310;4.462;2023-02-24T05:46:41;7.57;;;2.00;;
12832;SDS011;6483;51.310;4.462;2023-02-24T05:49:13;15.33;;;2.70;;
12832;SDS011;6483;51.310;4.462;2023-02-24T05:51:44;16.30;;;3.03;;
12832;SDS011;6483;51.310;4.462;2023-02-24T05:54:18;6.73;;;2.03;;
12832;SDS011;6483;51.310;4.462;2023-02-24T05:56:49;8.90;;;2.87;;
12832;SDS011;6483;51.310;4.462;2023-02-24T05:59:22;16.23;;;2.70;;
12832;SDS011;6483;51.310;4.462;2023-02-24T06:01:48;15.13;;;2.87;;
12832;SDS011;6483;51.310;4.462;2023-02-24T06:04:20;7.03;;;1.90;;
12832;SDS011;6483;51.310;4.462;2023-02-24T06:07:11;10.03;;;2.37;;
12832;SDS011;6483;51.310;4.462;2023-02-24T06:09:45;6.43;;;2.70;;
12832;SDS011;6483;51.310;4.462;2023-02-24T06:12:18;5.93;;;2.07;;
12832;SDS011;6483;51.310;4.462;2023-02-24T06:14:45;6.07;;;2.20;;
12832;SDS011;6483;51.310;4.462;2023-02-24T06:17:11;11.77;;;2.60;;
12832;SDS011;6483;51.310;4.462;2023-02-24T06:19:45;15.67;;;2.80;;
12832;SDS011;6483;51.310;4.462;2023-02-24T06:22:14;10.63;;;2.50;;
12832;SDS011;6483;51.310;4.462;2023-02-24T06:24:43;9.03;;;2.53;;
12832;SDS011;6483;51.310;4.462;2023-02-24T06:27:14;11.13;;;2.30;;
12832;SDS011;6483;51.310;4.462;2023-02-24T06:29:46;7.17;;;2.10;;
12832;SDS011;6483;51.310;4.462;2023-02-24T06:32:14;9.70;;;2.33;;
12832;SDS011;6483;51.310;4.462;2023-02-24T06:34:41;12.17;;;2.60;;
12832;SDS011;6483;51.310;4.462;2023-02-24T06:37:08;14.93;;;2.77;;
12832;SDS011;6483;51.310;4.462;2023-02-24T06:39:37;9.27;;;2.40;;
12832;SDS011;6483;51.310;4.462;2023-02-24T06:42:03;9.67;;;2.57;;
12832;SDS011;6483;51.310;4.462;2023-02-24T06:44:36;9.17;;;1.97;;
12832;SDS011;6483;51.310;4.462;2023-02-24T06:47:04;4.37;;;1.90;;
12832;SDS011;6483;51.310;4.462;2023-02-24T06:49:32;4.43;;;2.23;;
12832;SDS011;6483;51.310;4.462;2023-02-24T06:51:58;10.20;;;2.63;;
12832;SDS011;6483;51.310;4.462;2023-02-24T06:54:24;5.97;;;2.30;;
12832;SDS011;6483;51.310;4.462;2023-02-24T06:56:53;6.17;;;2.30;;
12832;SDS011;6483;51.310;4.462;2023-02-24T06:59:19;11.63;;;2.70;;
12832;SDS011;6483;51.310;4.462;2023-02-24T07:01:52;11.10;;;2.33;;
12832;SDS011;6483;51.310;4.462;2023-02-24T07:04:20;8.53;;;2.20;;
12832;SDS011;6483;51.310;4.462;2023-02-24T07:06:54;7.93;;;2.50;;
12832;SDS011;6483;51.310;4.462;2023-02-24T07:09:26;4.97;;;2.00;;
12832;SDS011;6483;51.310;4.462;2023-02-24T07:11:53;6.63;;;2.70;;
12832;SDS011;6483;51.310;4.462;2023-02-24T07:14:31;9.10;;;2.97;;
12832;SDS011;6483;51.310;4.462;2023-02-24T07:16:57;8.07;;;2.17;;
12832;SDS011;6483;51.310;4.462;2023-02-24T07:19:25;13.03;;;2.97;;
12832;SDS011;6483;51.310;4.462;2023-02-24T07:21:57;10.20;;;2.70;;
12832;SDS011;6483;51.310;4.462;2023-02-24T07:24:31;10.87;;;2.17;;
12832;SDS011;6483;51.310;4.462;2023-02-24T07:27:13;12.67;;;3.23;;
12832;SDS011;6483;51.310;4.462;2023-02-24T07:29:51;14.73;;;3.43;;
12832;SDS011;6483;51.310;4.462;2023-02-24T07:32:17;21.97;;;3.03;;
12832;SDS011;6483;51.310;4.462;2023-02-24T07:34:46;12.77;;;3.80;;
12832;SDS011;6483;51.310;4.462;2023-02-24T07:37:13;16.00;;;3.50;;
12832;SDS011;6483;51.310;4.462;2023-02-24T07:39:40;18.20;;;3.00;;
12832;SDS011;6483;51.310;4.462;2023-02-24T07:42:08;12.37;;;2.80;;
12832;SDS011;6483;51.310;4.462;2023-02-24T07:44:39;17.50;;;3.27;;
12832;SDS011;6483;51.310;4.462;2023-02-24T07:47:04;10.80;;;3.03;;
12832;SDS011;6483;51.310;4.462;2023-02-24T07:49:32;18.53;;;3.17;;
12832;SDS011;6483;51.310;4.462;2023-02-24T07:52:04;13.37;;;3.23;;
12832;SDS011;6483;51.310;4.462;2023-02-24T07:54:32;13.57;;;2.80;;
12832;SDS011;6483;51.310;4.462;2023-02-24T07:56:59;12.20;;;2.40;;
12832;SDS011;6483;51.310;4.462;2023-02-24T07:59:25;10.90;;;2.77;;
12832;SDS011;6483;51.310;4.462;2023-02-24T08:01:56;11.00;;;2.60;;
12832;SDS011;6483;51.310;4.462;2023-02-24T08:04:23;8.13;;;2.33;;
12832;SDS011;6483;51.310;4.462;2023-02-24T08:07:36;11.53;;;3.10;;
12832;SDS011;6483;51.310;4.462;2023-02-24T08:09:48;9.50;;;3.00;;
12832;SDS011;6483;51.310;4.462;2023-02-24T08:12:37;13.00;;;3.80;;
12832;SDS011;6483;51.310;4.462;2023-02-24T08:15:13;10.00;;;2.70;;
12832;SDS011;6483;51.310;4.462;2023-02-24T08:17:41;20.27;;;3.17;;
12832;SDS011;6483;51.310;4.462;2023-02-24T08:20:08;12.73;;;2.87;;
12832;SDS011;6483;51.310;4.462;2023-02-24T08:22:41;14.47;;;3.47;;
12832;SDS011;6483;51.310;4.462;2023-02-24T08:25:11;15.03;;;2.70;;
12832;SDS011;6483;51.310;4.462;2023-02-24T08:28:03;11.70;;;2.77;;
12832;SDS011;6483;51.310;4.462;2023-02-24T08:30:34;22.13;;;3.97;;
12832;SDS011;6483;51.310;4.462;2023-02-24T08:33:05;16.50;;;3.50;;
12832;SDS011;6483;51.310;4.462;2023-02-24T08:35:36;8.37;;;3.40;;
12832;SDS011;6483;51.310;4.462;2023-02-24T08:38:16;14.30;;;4.43;;
12832;SDS011;6483;51.310;4.462;2023-02-24T08:40:44;13.37;;;3.20;;
12832;SDS011;6483;51.310;4.462;2023-02-24T08:43:29;17.00;;;3.43;;
12832;SDS011;6483;51.310;4.462;2023-02-24T08:48:57;15.83;;;4.33;;
12832;SDS011;6483;51.310;4.462;2023-02-24T08:54:17;13.10;;;3.20;;
12832;SDS011;6483;51.310;4.462;2023-02-24T08:56:52;10.87;;;2.30;;
12832;SDS011;6483;51.310;4.462;2023-02-24T08:59:32;11.70;;;2.40;;
12832;SDS011;6483;51.310;4.462;2023-02-24T09:02:14;10.93;;;2.50;;
12832;SDS011;6483;51.310;4.462;2023-02-24T09:05:04;14.07;;;2.50;;
12832;SDS011;6483;51.310;4.462;2023-02-24T09:07:38;15.83;;;2.80;;
12832;SDS011;6483;51.310;4.462;2023-02-24T09:10:10;10.23;;;2.83;;
12832;SDS011;6483;51.310;4.462;2023-02-24T09:12:43;11.97;;;2.53;;
12832;SDS011;6483;51.310;4.462;2023-02-24T09:15:13;14.17;;;3.50;;
12832;SDS011;6483;51.310;4.462;2023-02-24T09:17:41;13.37;;;2.80;;
12832;SDS011;6483;51.310;4.462;2023-02-24T09:20:09;16.13;;;3.17;;
12832;SDS011;6483;51.310;4.462;2023-02-24T09:23:05;25.27;;;9.83;;
12832;SDS011;6483;51.310;4.462;2023-02-24T09:25:34;20.17;;;7.80;;
12832;SDS011;6483;51.310;4.462;2023-02-24T09:28:09;17.73;;;5.90;;
12832;SDS011;6483;51.310;4.462;2023-02-24T09:30:42;8.53;;;2.77;;
12832;SDS011;6483;51.310;4.462;2023-02-24T09:36:02;13.80;;;3.37;;
12832;SDS011;6483;51.310;4.462;2023-02-24T09:41:30;14.57;;;3.43;;
12832;SDS011;6483;51.310;4.462;2023-02-24T09:47:33;10.93;;;3.27;;
12832;SDS011;6483;51.310;4.462;2023-02-24T09:52:49;7.63;;;2.67;;
12832;SDS011;6483;51.310;4.462;2023-02-24T09:58:17;16.33;;;4.33;;
12832;SDS011;6483;51.310;4.462;2023-02-24T10:03:56;25.37;;;12.73;;
12832;SDS011;6483;51.310;4.462;2023-02-24T10:07:13;22.87;;;4.53;;
12832;SDS011;6483;51.310;4.462;2023-02-24T10:10:03;12.03;;;3.23;;
12832;SDS011;6483;51.310;4.462;2023-02-24T10:15:57;12.10;;;3.83;;
12832;SDS011;6483;51.310;4.462;2023-02-24T10:18:31;10.20;;;3.70;;
12832;SDS011;6483;51.310;4.462;2023-02-24T10:22:14;13.67;;;4.10;;
12832;SDS011;6483;51.310;4.462;2023-02-24T10:24:19;10.57;;;4.07;;
12832;SDS011;6483;51.310;4.462;2023-02-24T10:27:00;13.07;;;3.20;;
12832;SDS011;6483;51.310;4.462;2023-02-24T10:32:55;10.73;;;3.83;;
12832;SDS011;6483;51.310;4.462;2023-02-24T10:35:27;9.30;;;3.43;;
12832;SDS011;6483;51.310;4.462;2023-02-24T10:38:01;9.40;;;3.00;;
12832;SDS011;6483;51.310;4.462;2023-02-24T10:40:41;12.13;;;4.17;;
12832;SDS011;6483;51.310;4.462;2023-02-24T10:43:21;11.47;;;3.90;;
12832;SDS011;6483;51.310;4.462;2023-02-24T10:45:54;15.70;;;4.20;;
12832;SDS011;6483;51.310;4.462;2023-02-24T10:48:30;13.47;;;4.03;;
12832;SDS011;6483;51.310;4.462;2023-02-24T10:51:16;10.17;;;4.10;;
12832;SDS011;6483;51.310;4.462;2023-02-24T10:57:09;11.27;;;3.50;;
12832;SDS011;6483;51.310;4.462;2023-02-24T11:02:36;12.83;;;4.30;;
12832;SDS011;6483;51.310;4.462;2023-02-24T11:05:24;13.13;;;4.53;;
12832;SDS011;6483;51.310;4.462;2023-02-24T11:08:19;15.20;;;6.53;;
12832;SDS011;6483;51.310;4.462;2023-02-24T11:11:36;14.43;;;3.63;;
12832;SDS011;6483;51.310;4.462;2023-02-24T11:14:17;9.83;;;3.90;;
12832;SDS011;6483;51.310;4.462;2023-02-24T11:17:02;10.80;;;4.07;;
12832;SDS011;6483;51.310;4.462;2023-02-24T11:19:58;21.83;;;4.67;;
12832;SDS011;6483;51.310;4.462;2023-02-24T11:22:35;12.37;;;3.80;;
12832;SDS011;6483;51.310;4.462;2023-02-24T11:25:06;9.73;;;3.97;;
12832;SDS011;6483;51.310;4.462;2023-02-24T11:27:39;12.60;;;4.40;;
12832;SDS011;6483;51.310;4.462;2023-02-24T11:38:50;13.57;;;4.43;;
12832;SDS011;6483;51.310;4.462;2023-02-24T11:41:41;15.70;;;5.00;;
12832;SDS011;6483;51.310;4.462;2023-02-24T11:44:15;9.90;;;4.30;;
12832;SDS011;6483;51.310;4.462;2023-02-24T11:47:21;17.07;;;4.17;;
12832;SDS011;6483;51.310;4.462;2023-02-24T11:49:52;13.57;;;4.50;;
12832;SDS011;6483;51.310;4.462;2023-02-24T11:52:41;13.83;;;3.93;;
12832;SDS011;6483;51.310;4.462;2023-02-24T11:55:58;10.80;;;3.80;;
12832;SDS011;6483;51.310;4.462;2023-02-24T11:58:17;15.63;;;4.60;;
12832;SDS011;6483;51.310;4.462;2023-02-24T12:06:36;16.87;;;5.07;;
12832;SDS011;6483;51.310;4.462;2023-02-24T12:09:22;16.50;;;5.20;;
12832;SDS011;6483;51.310;4.462;2023-02-24T12:11:59;16.10;;;6.77;;
12832;SDS011;6483;51.310;4.462;2023-02-24T12:14:31;11.53;;;4.73;;
12832;SDS011;6483;51.310;4.462;2023-02-24T12:17:17;9.57;;;4.53;;
12832;SDS011;6483;51.310;4.462;2023-02-24T12:22:43;18.53;;;4.53;;
12832;SDS011;6483;51.310;4.462;2023-02-24T12:25:17;58.17;;;25.07;;
12832;SDS011;6483;51.310;4.462;2023-02-24T12:27:56;28.53;;;10.57;;
12832;SDS011;6483;51.310;4.462;2023-02-24T12:39:28;24.57;;;6.70;;
12832;SDS011;6483;51.310;4.462;2023-02-24T12:42:11;28.77;;;15.50;;
12832;SDS011;6483;51.310;4.462;2023-02-24T12:47:16;35.50;;;16.87;;
12832;SDS011;6483;51.310;4.462;2023-02-24T12:52:57;19.10;;;10.07;;
12832;SDS011;6483;51.310;4.462;2023-02-24T12:58:41;25.70;;;12.60;;
12832;SDS011;6483;51.310;4.462;2023-02-24T13:07:14;22.73;;;11.20;;
12832;SDS011;6483;51.310;4.462;2023-02-24T13:10:10;41.47;;;19.80;;
12832;SDS011;6483;51.310;4.462;2023-02-24T13:15:22;16.07;;;8.53;;
12832;SDS011;6483;51.310;4.462;2023-02-24T13:17:50;15.07;;;8.97;;
12832;SDS011;6483;51.310;4.462;2023-02-24T13:22:54;21.53;;;14.53;;
12832;SDS011;6483;51.310;4.462;2023-02-24T13:25:21;19.93;;;12.80;;
12832;SDS011;6483;51.310;4.462;2023-02-24T13:27:58;15.93;;;9.87;;
12832;SDS011;6483;51.310;4.462;2023-02-24T13:35:48;15.33;;;10.30;;
12832;SDS011;6483;51.310;4.462;2023-02-24T13:38:24;17.73;;;10.23;;
12832;SDS011;6483;51.310;4.462;2023-02-24T13:43:58;15.50;;;10.70;;
12832;SDS011;6483;51.310;4.462;2023-02-24T13:46:33;15.30;;;11.30;;
12832;SDS011;6483;51.310;4.462;2023-02-24T13:55:19;15.20;;;11.60;;
12832;SDS011;6483;51.310;4.462;2023-02-24T13:58:19;14.67;;;10.80;;
12832;SDS011;6483;51.310;4.462;2023-02-24T14:03:27;16.37;;;11.77;;
12832;SDS011;6483;51.310;4.462;2023-02-24T14:05:54;15.27;;;11.33;;
12832;SDS011;6483;51.310;4.462;2023-02-24T14:08:42;19.33;;;12.63;;
12832;SDS011;6483;51.310;4.462;2023-02-24T14:11:13;21.70;;;14.10;;
12832;SDS011;6483;51.310;4.462;2023-02-24T14:13:48;23.07;;;14.10;;
12832;SDS011;6483;51.310;4.462;2023-02-24T14:16:17;20.97;;;14.20;;
12832;SDS011;6483;51.310;4.462;2023-02-24T14:18:59;19.73;;;13.70;;
12832;SDS011;6483;51.310;4.462;2023-02-24T14:21:28;22.40;;;14.30;;
12832;SDS011;6483;51.310;4.462;2023-02-24T14:23:57;22.97;;;13.83;;
12832;SDS011;6483;51.310;4.462;2023-02-24T14:26:29;18.87;;;13.90;;
12832;SDS011;6483;51.310;4.462;2023-02-24T14:29:08;18.20;;;13.43;;
12832;SDS011;6483;51.310;4.462;2023-02-24T14:31:38;18.60;;;14.47;;
12832;SDS011;6483;51.310;4.462;2023-02-24T14:34:04;19.40;;;13.90;;
12832;SDS011;6483;51.310;4.462;2023-02-24T14:36:41;22.13;;;14.13;;
12832;SDS011;6483;51.310;4.462;2023-02-24T14:41:49;26.07;;;15.10;;
12832;SDS011;6483;51.310;4.462;2023-02-24T14:44:27;24.33;;;13.23;;
12832;SDS011;6483;51.310;4.462;2023-02-24T14:46:55;25.83;;;14.70;;
12832;SDS011;6483;51.310;4.462;2023-02-24T14:49:28;21.63;;;14.73;;
12832;SDS011;6483;51.310;4.462;2023-02-24T14:57:43;25.00;;;12.07;;
12832;SDS011;6483;51.310;4.462;2023-02-24T15:00:21;22.27;;;9.53;;
12832;SDS011;6483;51.310;4.462;2023-02-24T15:03:13;25.67;;;9.97;;
12832;SDS011;6483;51.310;4.462;2023-02-24T15:05:47;27.17;;;10.17;;
12832;SDS011;6483;51.310;4.462;2023-02-24T15:14:00;24.10;;;8.80;;
12832;SDS011;6483;51.310;4.462;2023-02-24T15:16:55;22.33;;;7.97;;
12832;SDS011;6483;51.310;4.462;2023-02-24T15:19:33;24.60;;;8.47;;
12832;SDS011;6483;51.310;4.462;2023-02-24T15:22:02;35.17;;;12.37;;
12832;SDS011;6483;51.310;4.462;2023-02-24T15:24:41;37.17;;;13.70;;
12832;SDS011;6483;51.310;4.462;2023-02-24T15:30:07;55.90;;;18.53;;
12832;SDS011;6483;51.310;4.462;2023-02-24T15:32:48;24.47;;;5.37;;
12832;SDS011;6483;51.310;4.462;2023-02-24T15:35:38;30.70;;;8.60;;
12832;SDS011;6483;51.310;4.462;2023-02-24T15:38:20;26.40;;;6.33;;
12832;SDS011;6483;51.310;4.462;2023-02-24T15:40:52;20.97;;;5.43;;
12832;SDS011;6483;51.310;4.462;2023-02-24T15:48:59;21.60;;;4.67;;
12832;SDS011;6483;51.310;4.462;2023-02-24T15:51:40;23.40;;;5.07;;
12832;SDS011;6483;51.310;4.462;2023-02-24T15:54:15;26.57;;;5.07;;
12832;SDS011;6483;51.310;4.462;2023-02-24T15:56:46;28.67;;;4.60;;
12832;SDS011;6483;51.310;4.462;2023-02-24T15:59:14;20.03;;;4.87;;
12832;SDS011;6483;51.310;4.462;2023-02-24T16:01:41;26.07;;;4.87;;
12832;SDS011;6483;51.310;4.462;2023-02-24T16:04:09;33.97;;;6.77;;
12832;SDS011;6483;51.310;4.462;2023-02-24T16:06:35;21.73;;;4.17;;
12832;SDS011;6483;51.310;4.462;2023-02-24T16:09:11;19.40;;;4.10;;
12832;SDS011;6483;51.310;4.462;2023-02-24T16:11:38;22.07;;;4.60;;
12832;SDS011;6483;51.310;4.462;2023-02-24T16:14:08;18.43;;;4.57;;
12832;SDS011;6483;51.310;4.462;2023-02-24T16:16:40;21.10;;;8.70;;
12832;SDS011;6483;51.310;4.462;2023-02-24T16:19:07;16.83;;;3.80;;
12832;SDS011;6483;51.310;4.462;2023-02-24T16:21:40;21.17;;;11.13;;
12832;SDS011;6483;51.310;4.462;2023-02-24T16:24:12;22.33;;;6.90;;
12832;SDS011;6483;51.310;4.462;2023-02-24T16:26:38;21.70;;;5.30;;
12832;SDS011;6483;51.310;4.462;2023-02-24T16:29:05;20.83;;;4.13;;
12832;SDS011;6483;51.310;4.462;2023-02-24T16:31:38;22.63;;;5.30;;
12832;SDS011;6483;51.310;4.462;2023-02-24T16:34:04;20.10;;;7.20;;
12832;SDS011;6483;51.310;4.462;2023-02-24T16:36:31;24.90;;;5.60;;
12832;SDS011;6483;51.310;4.462;2023-02-24T16:39:00;23.00;;;4.20;;
12832;SDS011;6483;51.310;4.462;2023-02-24T16:41:30;19.10;;;3.43;;
12832;SDS011;6483;51.310;4.462;2023-02-24T16:43:55;16.37;;;3.77;;
12832;SDS011;6483;51.310;4.462;2023-02-24T16:46:21;18.87;;;2.93;;
12832;SDS011;6483;51.310;4.462;2023-02-24T16:48:51;12.97;;;3.47;;
12832;SDS011;6483;51.310;4.462;2023-02-24T16:51:18;19.37;;;3.20;;
12832;SDS011;6483;51.310;4.462;2023-02-24T16:53:45;12.93;;;2.93;;
12832;SDS011;6483;51.310;4.462;2023-02-24T16:56:11;12.43;;;4.23;;
12832;SDS011;6483;51.310;4.462;2023-02-24T16:58:39;13.20;;;3.23;;
12832;SDS011;6483;51.310;4.462;2023-02-24T17:01:04;10.90;;;3.00;;
12832;SDS011;6483;51.310;4.462;2023-02-24T17:03:45;16.77;;;2.57;;
12832;SDS011;6483;51.310;4.462;2023-02-24T17:06:13;11.20;;;2.23;;
12832;SDS011;6483;51.310;4.462;2023-02-24T17:08:42;10.37;;;2.27;;
12832;SDS011;6483;51.310;4.462;2023-02-24T17:11:13;11.33;;;2.87;;
12832;SDS011;6483;51.310;4.462;2023-02-24T17:13:41;9.83;;;2.93;;
12832;SDS011;6483;51.310;4.462;2023-02-24T17:16:08;11.10;;;2.10;;
12832;SDS011;6483;51.310;4.462;2023-02-24T17:18:37;10.20;;;2.07;;
12832;SDS011;6483;51.310;4.462;2023-02-24T17:21:04;14.10;;;3.47;;
12832;SDS011;6483;51.310;4.462;2023-02-24T17:23:30;11.13;;;3.10;;
12832;SDS011;6483;51.310;4.462;2023-02-24T17:25:57;11.30;;;3.23;;
12832;SDS011;6483;51.310;4.462;2023-02-24T17:28:26;10.93;;;3.53;;
12832;SDS011;6483;51.310;4.462;2023-02-24T17:30:55;11.37;;;2.80;;
12832;SDS011;6483;51.310;4.462;2023-02-24T17:33:21;11.20;;;2.60;;
12832;SDS011;6483;51.310;4.462;2023-02-24T17:35:47;10.47;;;2.40;;
12832;SDS011;6483;51.310;4.462;2023-02-24T17:38:13;11.37;;;3.30;;
12832;SDS011;6483;51.310;4.462;2023-02-24T17:40:43;11.50;;;2.53;;
12832;SDS011;6483;51.310;4.462;2023-02-24T17:43:10;10.90;;;2.67;;
12832;SDS011;6483;51.310;4.462;2023-02-24T17:48:40;12.67;;;2.73;;
12832;SDS011;6483;51.310;4.462;2023-02-24T17:51:16;7.40;;;2.67;;
12832;SDS011;6483;51.310;4.462;2023-02-24T17:53:43;9.30;;;2.57;;
12832;SDS011;6483;51.310;4.462;2023-02-24T17:56:10;14.47;;;2.60;;
12832;SDS011;6483;51.310;4.462;2023-02-24T17:58:36;10.53;;;2.20;;
12832;SDS011;6483;51.310;4.462;2023-02-24T18:01:03;17.67;;;2.77;;
12832;SDS011;6483;51.310;4.462;2023-02-24T18:03:31;13.77;;;2.50;;
12832;SDS011;6483;51.310;4.462;2023-02-24T18:05:58;12.50;;;2.37;;
12832;SDS011;6483;51.310;4.462;2023-02-24T18:08:30;8.00;;;2.13;;
12832;SDS011;6483;51.310;4.462;2023-02-24T18:10:57;12.53;;;2.67;;